KJKL

Julian Carroll Airport

Jackson, Kentucky, USA
METAR KJKL 210353Z AUTO 20004KT 10SM SCT034 09/02 A3018 RMK AO2 SLP219 T00890022
Observed Flight Rules
Jan-21 @ 03:53 UTC (47 minutes ago) Visual Flight Rules
Wind Visibility Clouds
200° at 4 knots 10 miles
  • Scattered at 3,400' AGL
Temperatures Readings
Current 9°C / 48°F
Dewpoint 2°C / 36°F
Humidity 62%
Altimeter 30.18" Hg
Pressure 1021.9 hPa
Elevation 416
METAR KJKL 210353Z AUTO 20004KT 10SM SCT034 09/02 A3018 RMK AO2 SLP219 T00890022
Observed Flight Rules
Jan-21 @ 03:53 UTC
(47 minutes ago)
VFR
Wind Visibility
200° at 4 knots 10 miles
Clouds
  • Scattered at 3,400' AGL
Temperature Dewpoint
9°C / 48°F 2°C / 36°F
Humidity Altimeter Pressure
62% 30.18" Hg 1021.9 hPa